sensor_id;sensor_type;location;lat;lon;timestamp;P1;durP1;ratioP1;P2;durP2;ratioP2
43837;SDS011;29493;46.516;6.638;2022-12-07T00:01:23;5.68;;;2.28;;
43837;SDS011;29493;46.516;6.638;2022-12-07T00:03:53;5.15;;;2.40;;
43837;SDS011;29493;46.516;6.638;2022-12-07T00:06:22;5.45;;;2.35;;
43837;SDS011;29493;46.516;6.638;2022-12-07T00:08:48;5.00;;;2.20;;
43837;SDS011;29493;46.516;6.638;2022-12-07T00:11:18;4.47;;;2.23;;
43837;SDS011;29493;46.516;6.638;2022-12-07T00:13:46;5.82;;;2.30;;
43837;SDS011;29493;46.516;6.638;2022-12-07T00:16:16;4.32;;;2.10;;
43837;SDS011;29493;46.516;6.638;2022-12-07T00:18:43;7.40;;;2.70;;
43837;SDS011;29493;46.516;6.638;2022-12-07T00:21:11;4.72;;;2.20;;
43837;SDS011;29493;46.516;6.638;2022-12-07T00:23:39;4.78;;;1.92;;
43837;SDS011;29493;46.516;6.638;2022-12-07T00:26:06;5.18;;;2.35;;
43837;SDS011;29493;46.516;6.638;2022-12-07T00:28:34;5.05;;;2.38;;
43837;SDS011;29493;46.516;6.638;2022-12-07T00:31:04;4.18;;;2.00;;
43837;SDS011;29493;46.516;6.638;2022-12-07T00:33:32;6.57;;;2.50;;
43837;SDS011;29493;46.516;6.638;2022-12-07T00:35:59;5.13;;;2.20;;
43837;SDS011;29493;46.516;6.638;2022-12-07T00:38:27;6.05;;;2.40;;
43837;SDS011;29493;46.516;6.638;2022-12-07T00:40:57;6.22;;;2.05;;
43837;SDS011;29493;46.516;6.638;2022-12-07T00:43:25;5.23;;;2.20;;
43837;SDS011;29493;46.516;6.638;2022-12-07T00:45:51;6.20;;;2.30;;
43837;SDS011;29493;46.516;6.638;2022-12-07T00:48:17;5.88;;;2.30;;
43837;SDS011;29493;46.516;6.638;2022-12-07T00:50:43;5.57;;;2.10;;
43837;SDS011;29493;46.516;6.638;2022-12-07T00:53:09;4.45;;;2.03;;
43837;SDS011;29493;46.516;6.638;2022-12-07T00:55:35;4.25;;;2.10;;
43837;SDS011;29493;46.516;6.638;2022-12-07T00:58:01;4.70;;;2.15;;
43837;SDS011;29493;46.516;6.638;2022-12-07T01:00:28;4.32;;;2.10;;
43837;SDS011;29493;46.516;6.638;2022-12-07T01:02:54;5.10;;;2.00;;
43837;SDS011;29493;46.516;6.638;2022-12-07T01:05:19;4.65;;;2.00;;
43837;SDS011;29493;46.516;6.638;2022-12-07T01:07:45;4.40;;;2.10;;
43837;SDS011;29493;46.516;6.638;2022-12-07T01:10:12;5.78;;;2.03;;
43837;SDS011;29493;46.516;6.638;2022-12-07T01:12:38;3.50;;;1.80;;
43837;SDS011;29493;46.516;6.638;2022-12-07T01:15:04;3.90;;;1.98;;
43837;SDS011;29493;46.516;6.638;2022-12-07T01:17:31;5.03;;;2.00;;
43837;SDS011;29493;46.516;6.638;2022-12-07T01:19:56;4.53;;;2.20;;
43837;SDS011;29493;46.516;6.638;2022-12-07T01:22:22;4.78;;;1.95;;
43837;SDS011;29493;46.516;6.638;2022-12-07T01:24:48;4.70;;;1.80;;
43837;SDS011;29493;46.516;6.638;2022-12-07T01:27:14;4.32;;;1.90;;
43837;SDS011;29493;46.516;6.638;2022-12-07T01:29:40;4.30;;;1.80;;
43837;SDS011;29493;46.516;6.638;2022-12-07T01:32:06;4.65;;;2.13;;
43837;SDS011;29493;46.516;6.638;2022-12-07T01:34:32;4.68;;;1.90;;
43837;SDS011;29493;46.516;6.638;2022-12-07T01:36:58;4.17;;;2.03;;
43837;SDS011;29493;46.516;6.638;2022-12-07T01:39:23;4.40;;;2.00;;
43837;SDS011;29493;46.516;6.638;2022-12-07T01:41:50;3.90;;;1.80;;
43837;SDS011;29493;46.516;6.638;2022-12-07T01:46:48;3.80;;;1.90;;
43837;SDS011;29493;46.516;6.638;2022-12-07T01:49:33;5.15;;;1.67;;
43837;SDS011;29493;46.516;6.638;2022-12-07T01:54:31;4.25;;;1.92;;
43837;SDS011;29493;46.516;6.638;2022-12-07T01:56:58;4.50;;;2.17;;
43837;SDS011;29493;46.516;6.638;2022-12-07T01:59:24;4.22;;;1.95;;
43837;SDS011;29493;46.516;6.638;2022-12-07T02:01:52;4.55;;;1.80;;
43837;SDS011;29493;46.516;6.638;2022-12-07T02:04:19;3.75;;;2.20;;
43837;SDS011;29493;46.516;6.638;2022-12-07T02:06:46;5.30;;;2.37;;
43837;SDS011;29493;46.516;6.638;2022-12-07T02:09:12;4.13;;;1.90;;
43837;SDS011;29493;46.516;6.638;2022-12-07T02:11:38;3.58;;;1.70;;
43837;SDS011;29493;46.516;6.638;2022-12-07T02:14:04;3.47;;;1.80;;
43837;SDS011;29493;46.516;6.638;2022-12-07T02:16:34;3.70;;;1.70;;
43837;SDS011;29493;46.516;6.638;2022-12-07T02:19:30;3.60;;;1.60;;
43837;SDS011;29493;46.516;6.638;2022-12-07T02:30:40;2.60;;;1.40;;
43837;SDS011;29493;46.516;6.638;2022-12-07T02:33:11;3.33;;;1.52;;
43837;SDS011;29493;46.516;6.638;2022-12-07T02:35:44;3.67;;;1.98;;
43837;SDS011;29493;46.516;6.638;2022-12-07T02:43:55;3.83;;;1.67;;
43837;SDS011;29493;46.516;6.638;2022-12-07T02:46:42;3.05;;;1.60;;
43837;SDS011;29493;46.516;6.638;2022-12-07T02:49:10;4.05;;;1.83;;
43837;SDS011;29493;46.516;6.638;2022-12-07T02:51:40;3.03;;;1.40;;
43837;SDS011;29493;46.516;6.638;2022-12-07T02:54:15;4.03;;;1.60;;
43837;SDS011;29493;46.516;6.638;2022-12-07T02:56:46;2.83;;;1.57;;
43837;SDS011;29493;46.516;6.638;2022-12-07T03:02:06;3.60;;;1.70;;
43837;SDS011;29493;46.516;6.638;2022-12-07T03:07:38;3.20;;;1.73;;
43837;SDS011;29493;46.516;6.638;2022-12-07T03:10:30;4.50;;;1.50;;
43837;SDS011;29493;46.516;6.638;2022-12-07T03:13:13;3.13;;;1.55;;
43837;SDS011;29493;46.516;6.638;2022-12-07T03:16:03;2.70;;;1.50;;
43837;SDS011;29493;46.516;6.638;2022-12-07T03:18:36;2.70;;;1.45;;
43837;SDS011;29493;46.516;6.638;2022-12-07T03:21:10;3.45;;;1.65;;
43837;SDS011;29493;46.516;6.638;2022-12-07T03:23:40;3.60;;;1.40;;
43837;SDS011;29493;46.516;6.638;2022-12-07T03:26:11;2.78;;;1.30;;
43837;SDS011;29493;46.516;6.638;2022-12-07T03:28:40;3.13;;;1.50;;
43837;SDS011;29493;46.516;6.638;2022-12-07T03:33:42;3.22;;;1.75;;
43837;SDS011;29493;46.516;6.638;2022-12-07T03:36:23;3.03;;;1.60;;
43837;SDS011;29493;46.516;6.638;2022-12-07T03:41:45;3.47;;;1.40;;
43837;SDS011;29493;46.516;6.638;2022-12-07T03:44:11;3.30;;;1.60;;
43837;SDS011;29493;46.516;6.638;2022-12-07T03:49:18;2.58;;;1.40;;
43837;SDS011;29493;46.516;6.638;2022-12-07T03:51:55;3.20;;;1.40;;
43837;SDS011;29493;46.516;6.638;2022-12-07T03:54:32;3.10;;;1.40;;
43837;SDS011;29493;46.516;6.638;2022-12-07T03:57:06;3.35;;;1.58;;
43837;SDS011;29493;46.516;6.638;2022-12-07T03:59:33;2.47;;;1.20;;
43837;SDS011;29493;46.516;6.638;2022-12-07T04:02:03;2.67;;;1.42;;
43837;SDS011;29493;46.516;6.638;2022-12-07T04:04:30;2.97;;;1.40;;
43837;SDS011;29493;46.516;6.638;2022-12-07T04:06:56;3.60;;;1.60;;
43837;SDS011;29493;46.516;6.638;2022-12-07T04:09:22;2.77;;;1.40;;
43837;SDS011;29493;46.516;6.638;2022-12-07T04:11:48;2.88;;;1.42;;
43837;SDS011;29493;46.516;6.638;2022-12-07T04:14:13;2.70;;;1.50;;
43837;SDS011;29493;46.516;6.638;2022-12-07T04:16:53;3.37;;;1.40;;
43837;SDS011;29493;46.516;6.638;2022-12-07T04:19:25;2.83;;;1.40;;
43837;SDS011;29493;46.516;6.638;2022-12-07T04:21:52;3.20;;;1.50;;
43837;SDS011;29493;46.516;6.638;2022-12-07T04:24:18;2.60;;;1.40;;
43837;SDS011;29493;46.516;6.638;2022-12-07T04:26:44;3.10;;;1.70;;
43837;SDS011;29493;46.516;6.638;2022-12-07T04:29:10;3.05;;;1.63;;
43837;SDS011;29493;46.516;6.638;2022-12-07T04:31:37;2.65;;;1.30;;
43837;SDS011;29493;46.516;6.638;2022-12-07T04:34:03;2.67;;;1.40;;
43837;SDS011;29493;46.516;6.638;2022-12-07T04:36:30;2.80;;;1.48;;
43837;SDS011;29493;46.516;6.638;2022-12-07T04:38:56;3.33;;;1.43;;
43837;SDS011;29493;46.516;6.638;2022-12-07T04:41:22;2.95;;;1.50;;
43837;SDS011;29493;46.516;6.638;2022-12-07T04:43:53;3.15;;;1.58;;
43837;SDS011;29493;46.516;6.638;2022-12-07T04:46:20;3.00;;;1.67;;
43837;SDS011;29493;46.516;6.638;2022-12-07T04:48:46;3.13;;;1.60;;
43837;SDS011;29493;46.516;6.638;2022-12-07T04:51:12;3.28;;;1.55;;
43837;SDS011;29493;46.516;6.638;2022-12-07T04:53:38;3.03;;;1.40;;
43837;SDS011;29493;46.516;6.638;2022-12-07T04:56:04;2.93;;;1.57;;
43837;SDS011;29493;46.516;6.638;2022-12-07T04:58:29;3.00;;;1.40;;
43837;SDS011;29493;46.516;6.638;2022-12-07T05:00:55;2.87;;;1.57;;
43837;SDS011;29493;46.516;6.638;2022-12-07T05:03:21;2.70;;;1.50;;
43837;SDS011;29493;46.516;6.638;2022-12-07T05:05:46;2.70;;;1.50;;
43837;SDS011;29493;46.516;6.638;2022-12-07T05:08:12;2.43;;;1.20;;
43837;SDS011;29493;46.516;6.638;2022-12-07T05:10:38;3.10;;;1.48;;
43837;SDS011;29493;46.516;6.638;2022-12-07T05:13:03;4.00;;;1.43;;
43837;SDS011;29493;46.516;6.638;2022-12-07T05:15:29;2.50;;;1.30;;
43837;SDS011;29493;46.516;6.638;2022-12-07T05:17:54;2.60;;;1.10;;
43837;SDS011;29493;46.516;6.638;2022-12-07T05:20:20;2.90;;;1.27;;
43837;SDS011;29493;46.516;6.638;2022-12-07T05:22:46;4.00;;;1.47;;
43837;SDS011;29493;46.516;6.638;2022-12-07T05:25:12;2.83;;;1.25;;
43837;SDS011;29493;46.516;6.638;2022-12-07T05:27:38;2.63;;;1.20;;
43837;SDS011;29493;46.516;6.638;2022-12-07T05:30:04;3.33;;;1.30;;
43837;SDS011;29493;46.516;6.638;2022-12-07T05:32:30;2.60;;;1.10;;
43837;SDS011;29493;46.516;6.638;2022-12-07T05:34:56;3.03;;;1.57;;
43837;SDS011;29493;46.516;6.638;2022-12-07T05:37:22;4.03;;;1.35;;
43837;SDS011;29493;46.516;6.638;2022-12-07T05:39:47;2.77;;;1.30;;
43837;SDS011;29493;46.516;6.638;2022-12-07T05:42:13;2.63;;;1.40;;
43837;SDS011;29493;46.516;6.638;2022-12-07T05:44:40;2.75;;;1.20;;
43837;SDS011;29493;46.516;6.638;2022-12-07T05:47:10;2.50;;;1.40;;
43837;SDS011;29493;46.516;6.638;2022-12-07T05:49:36;2.65;;;1.30;;
43837;SDS011;29493;46.516;6.638;2022-12-07T05:52:02;2.65;;;1.30;;
43837;SDS011;29493;46.516;6.638;2022-12-07T05:54:29;2.75;;;1.33;;
43837;SDS011;29493;46.516;6.638;2022-12-07T05:56:55;3.13;;;1.30;;
43837;SDS011;29493;46.516;6.638;2022-12-07T05:59:21;2.60;;;1.27;;
43837;SDS011;29493;46.516;6.638;2022-12-07T06:01:50;2.70;;;1.30;;
43837;SDS011;29493;46.516;6.638;2022-12-07T06:04:38;2.42;;;1.20;;
43837;SDS011;29493;46.516;6.638;2022-12-07T06:07:06;2.67;;;1.40;;
43837;SDS011;29493;46.516;6.638;2022-12-07T06:09:33;2.45;;;1.15;;
43837;SDS011;29493;46.516;6.638;2022-12-07T06:11:59;2.80;;;1.40;;
43837;SDS011;29493;46.516;6.638;2022-12-07T06:14:44;5.22;;;1.38;;
43837;SDS011;29493;46.516;6.638;2022-12-07T06:17:10;3.13;;;1.42;;
43837;SDS011;29493;46.516;6.638;2022-12-07T06:19:38;3.70;;;1.35;;
43837;SDS011;29493;46.516;6.638;2022-12-07T06:22:04;2.60;;;1.20;;
43837;SDS011;29493;46.516;6.638;2022-12-07T06:24:31;2.88;;;1.30;;
43837;SDS011;29493;46.516;6.638;2022-12-07T06:26:57;4.72;;;1.30;;
43837;SDS011;29493;46.516;6.638;2022-12-07T06:29:24;2.85;;;1.30;;
43837;SDS011;29493;46.516;6.638;2022-12-07T06:31:49;3.58;;;1.23;;
43837;SDS011;29493;46.516;6.638;2022-12-07T06:34:17;3.15;;;1.50;;
43837;SDS011;29493;46.516;6.638;2022-12-07T06:36:44;3.67;;;1.23;;
43837;SDS011;29493;46.516;6.638;2022-12-07T06:39:11;3.60;;;1.40;;
43837;SDS011;29493;46.516;6.638;2022-12-07T06:41:37;3.10;;;1.40;;
43837;SDS011;29493;46.516;6.638;2022-12-07T06:44:04;4.13;;;1.50;;
43837;SDS011;29493;46.516;6.638;2022-12-07T06:46:31;6.37;;;1.77;;
43837;SDS011;29493;46.516;6.638;2022-12-07T06:48:57;4.35;;;1.50;;
43837;SDS011;29493;46.516;6.638;2022-12-07T06:51:23;3.55;;;1.40;;
43837;SDS011;29493;46.516;6.638;2022-12-07T06:53:49;4.47;;;1.43;;
43837;SDS011;29493;46.516;6.638;2022-12-07T06:56:15;10.80;;;5.00;;
43837;SDS011;29493;46.516;6.638;2022-12-07T06:58:41;9.18;;;3.47;;
43837;SDS011;29493;46.516;6.638;2022-12-07T07:01:13;4.77;;;2.00;;
43837;SDS011;29493;46.516;6.638;2022-12-07T07:03:40;5.72;;;1.80;;
43837;SDS011;29493;46.516;6.638;2022-12-07T07:06:07;6.50;;;1.83;;
43837;SDS011;29493;46.516;6.638;2022-12-07T07:08:33;7.07;;;1.95;;
43837;SDS011;29493;46.516;6.638;2022-12-07T07:10:59;7.72;;;1.80;;
43837;SDS011;29493;46.516;6.638;2022-12-07T07:13:26;4.85;;;1.60;;
43837;SDS011;29493;46.516;6.638;2022-12-07T07:15:52;5.85;;;1.70;;
43837;SDS011;29493;46.516;6.638;2022-12-07T07:18:17;6.05;;;1.90;;
43837;SDS011;29493;46.516;6.638;2022-12-07T07:20:43;6.70;;;1.70;;
43837;SDS011;29493;46.516;6.638;2022-12-07T07:23:09;12.95;;;5.53;;
43837;SDS011;29493;46.516;6.638;2022-12-07T07:25:35;10.18;;;3.72;;
43837;SDS011;29493;46.516;6.638;2022-12-07T07:28:01;7.25;;;2.03;;
43837;SDS011;29493;46.516;6.638;2022-12-07T07:30:27;6.27;;;2.00;;
43837;SDS011;29493;46.516;6.638;2022-12-07T07:32:59;9.55;;;2.40;;
43837;SDS011;29493;46.516;6.638;2022-12-07T07:35:27;16.23;;;3.00;;
43837;SDS011;29493;46.516;6.638;2022-12-07T07:37:54;10.40;;;2.78;;
